createdAt,value
2022-10-20T00:04:13.607Z,6.88
2022-10-20T00:10:06.038Z,6.32
2022-10-20T00:21:52.401Z,5.90
2022-10-20T00:27:55.079Z,5.72
2022-10-20T00:39:44.091Z,8.27
2022-10-20T00:45:36.642Z,6.13
2022-10-20T00:51:30.243Z,8.25
2022-10-20T00:57:23.922Z,8.27
2022-10-20T01:09:19.897Z,8.45
2022-10-20T01:15:19.387Z,8.77
2022-10-20T01:21:42.309Z,8.77
2022-10-20T01:27:40.086Z,6.45
2022-10-20T01:33:35.421Z,5.15
2022-10-20T01:39:50.808Z,6.22
2022-10-20T01:45:44.993Z,6.47
2022-10-20T01:51:36.954Z,6.00
2022-10-20T01:57:45.042Z,5.70
2022-10-20T02:03:36.810Z,5.28
2022-10-20T02:09:32.962Z,4.72
2022-10-20T02:15:26.556Z,6.10
2022-10-20T02:21:18.869Z,3.88
2022-10-20T02:27:16.534Z,7.10
2022-10-20T02:33:09.082Z,6.57
2022-10-20T02:39:00.787Z,4.82
2022-10-20T02:44:52.726Z,5.75
2022-10-20T02:50:44.841Z,5.93
2022-10-20T02:56:36.863Z,5.65
2022-10-20T03:02:28.828Z,4.82
2022-10-20T03:08:20.789Z,5.78
2022-10-20T03:14:12.916Z,5.68
2022-10-20T03:20:05.862Z,6.03
2022-10-20T03:26:08.067Z,5.45
2022-10-20T03:31:59.927Z,6.00
2022-10-20T03:37:52.097Z,6.10
2022-10-20T03:43:43.721Z,5.03
2022-10-20T03:49:36.089Z,5.00
2022-10-20T03:55:28.330Z,4.50
2022-10-20T04:01:21.554Z,4.43
2022-10-20T04:07:14.425Z,3.90
2022-10-20T04:13:08.612Z,4.00
2022-10-20T04:19:01.053Z,3.92
2022-10-20T04:24:53.693Z,5.97
2022-10-20T04:30:47.015Z,7.85
2022-10-20T04:36:39.243Z,8.88
2022-10-20T04:42:31.063Z,5.40
2022-10-20T04:48:23.414Z,5.20
2022-10-20T04:54:15.274Z,6.40
2022-10-20T05:00:07.752Z,6.28
2022-10-20T05:06:10.776Z,6.80
2022-10-20T05:12:03.037Z,5.45
2022-10-20T05:17:55.353Z,6.07
2022-10-20T05:23:47.498Z,5.47
2022-10-20T05:29:39.493Z,7.05
2022-10-20T05:35:31.855Z,6.40
2022-10-20T05:41:29.805Z,5.30
2022-10-20T05:47:23.093Z,6.43
2022-10-20T05:53:15.561Z,5.78
2022-10-20T05:59:07.653Z,6.07
2022-10-20T06:04:59.842Z,6.65
2022-10-20T06:10:52.515Z,6.20
2022-10-20T06:16:44.722Z,5.90
2022-10-20T06:22:37.736Z,5.97
2022-10-20T06:28:31.964Z,6.67
2022-10-20T06:34:25.293Z,6.15
2022-10-20T06:40:17.603Z,6.88
2022-10-20T06:46:12.773Z,7.50
2022-10-20T06:52:04.882Z,9.35
2022-10-20T06:57:58.473Z,8.40
2022-10-20T07:03:51.911Z,7.90
2022-10-20T07:09:44.174Z,8.35
2022-10-20T07:15:36.285Z,7.25
2022-10-20T07:21:35.657Z,7.32
2022-10-20T07:27:29.753Z,7.05
2022-10-20T07:33:22.283Z,7.72
2022-10-20T07:39:14.968Z,7.82
2022-10-20T07:45:08.077Z,7.80
2022-10-20T07:51:19.435Z,7.18
2022-10-20T07:57:11.848Z,7.70
2022-10-20T08:03:03.948Z,7.47
2022-10-20T08:08:55.890Z,7.13
2022-10-20T08:15:00.578Z,6.53
2022-10-20T08:20:53.872Z,6.88
2022-10-20T08:26:45.812Z,5.82
2022-10-20T08:32:38.283Z,6.22
2022-10-20T08:38:31.083Z,6.15
2022-10-20T08:44:27.592Z,4.82
2022-10-20T08:50:21.561Z,5.38
2022-10-20T08:56:14.405Z,4.93
2022-10-20T09:02:15.489Z,4.50
2022-10-20T09:08:08.173Z,4.50
2022-10-20T09:14:00.180Z,4.88
2022-10-20T09:19:56.063Z,5.10
2022-10-20T09:25:49.175Z,3.85
2022-10-20T09:31:42.493Z,4.43
2022-10-20T09:37:36.934Z,4.07
2022-10-20T09:43:29.069Z,3.80
2022-10-20T09:49:25.634Z,3.67
2022-10-20T09:55:23.994Z,1.83
2022-10-20T10:01:17.770Z,3.13
2022-10-20T10:07:21.892Z,2.95
2022-10-20T10:13:24.709Z,1.90
2022-10-20T10:19:18.323Z,2.77
2022-10-20T10:25:24.962Z,2.22
2022-10-20T10:31:17.271Z,2.45
2022-10-20T10:37:12.168Z,2.17
2022-10-20T10:43:10.243Z,1.83
2022-10-20T10:49:21.823Z,1.25
2022-10-20T10:55:37.186Z,2.08
2022-10-20T11:01:48.477Z,1.67
2022-10-20T11:07:49.733Z,2.58
2022-10-20T11:13:56.965Z,2.15
2022-10-20T11:20:07.906Z,1.80
2022-10-20T11:26:13.356Z,1.40
2022-10-20T11:32:05.284Z,2.00
2022-10-20T11:38:13.384Z,0.80
2022-10-20T11:44:25.844Z,2.05
2022-10-20T11:50:19.085Z,1.00
2022-10-20T11:56:20.760Z,3.28
2022-10-20T12:02:13.843Z,2.00
2022-10-20T12:08:29.784Z,2.30
2022-10-20T12:14:26.257Z,1.35
2022-10-20T12:20:20.739Z,2.75
2022-10-20T12:26:34.484Z,2.55
2022-10-20T12:32:35.757Z,2.85
2022-10-20T12:38:29.516Z,2.63
2022-10-20T12:44:21.734Z,3.10
2022-10-20T12:50:16.484Z,2.63
2022-10-20T12:56:14.549Z,1.50
2022-10-20T13:02:10.498Z,2.10
2022-10-20T13:08:16.384Z,2.55
2022-10-20T13:14:20.706Z,2.50
2022-10-20T13:26:20.755Z,4.13
2022-10-20T13:32:18.783Z,2.20
2022-10-20T13:38:18.513Z,2.50
2022-10-20T13:44:25.023Z,2.47
2022-10-20T13:50:22.750Z,3.00
2022-10-20T13:56:17.418Z,2.47
2022-10-20T14:02:38.982Z,2.58
2022-10-20T14:08:31.720Z,3.25
2022-10-20T14:14:25.532Z,3.22
2022-10-20T14:20:20.915Z,3.13
2022-10-20T14:26:20.684Z,2.63
2022-10-20T14:32:18.998Z,2.20
2022-10-20T14:38:22.817Z,3.08
2022-10-20T14:44:30.186Z,2.25
2022-10-20T14:50:26.017Z,2.50
2022-10-20T14:56:23.620Z,3.40
2022-10-20T15:02:19.539Z,2.45
2022-10-20T15:08:14.953Z,2.63
2022-10-20T15:14:14.464Z,3.25
2022-10-20T15:20:25.575Z,4.38
2022-10-20T15:26:17.903Z,4.35
2022-10-20T15:32:09.964Z,4.32
2022-10-20T15:38:03.035Z,4.20
2022-10-20T15:43:55.178Z,5.72
2022-10-20T15:49:47.104Z,4.35
2022-10-20T15:55:41.950Z,4.53
2022-10-20T16:01:34.420Z,5.43
2022-10-20T16:07:26.803Z,5.35
2022-10-20T16:13:21.598Z,3.88
2022-10-20T16:19:14.248Z,4.78
2022-10-20T16:25:07.403Z,5.37
2022-10-20T16:31:06.879Z,4.97
2022-10-20T16:36:59.246Z,5.97
2022-10-20T16:42:50.905Z,7.80
2022-10-20T16:48:47.502Z,5.60
2022-10-20T17:00:33.436Z,5.20
2022-10-20T17:06:26.823Z,6.82
2022-10-20T17:12:18.989Z,7.60
2022-10-20T17:18:11.644Z,8.13
2022-10-20T17:24:04.575Z,8.23
2022-10-20T17:29:57.371Z,7.03
2022-10-20T17:35:49.311Z,5.55
2022-10-20T17:41:42.965Z,5.43
2022-10-20T17:53:27.435Z,4.97
2022-10-20T17:59:18.976Z,4.70
2022-10-20T18:05:11.453Z,3.30
2022-10-20T18:11:03.734Z,3.85
2022-10-20T18:16:56.705Z,4.13
2022-10-20T18:22:49.483Z,5.50
2022-10-20T18:28:45.725Z,4.80
2022-10-20T18:34:41.767Z,4.95
2022-10-20T18:40:34.425Z,5.82
2022-10-20T18:46:27.627Z,5.05
2022-10-20T18:52:20.142Z,5.75
2022-10-20T18:58:12.639Z,5.85
2022-10-20T19:04:04.940Z,5.57
2022-10-20T19:09:58.504Z,5.25
2022-10-20T19:15:52.044Z,5.03
2022-10-20T19:21:49.796Z,4.63
2022-10-20T19:27:44.993Z,3.80
2022-10-20T19:33:38.346Z,5.28
2022-10-20T19:39:32.776Z,5.85
2022-10-20T19:51:17.688Z,7.40
2022-10-20T19:57:09.798Z,5.60
2022-10-20T20:03:01.665Z,5.03
2022-10-20T20:08:59.412Z,7.18
2022-10-20T20:14:51.483Z,7.28
2022-10-20T20:20:44.535Z,8.55
2022-10-20T20:26:37.256Z,6.78
2022-10-20T20:32:30.025Z,7.95
2022-10-20T20:38:22.907Z,6.68
2022-10-20T20:44:16.453Z,7.90
2022-10-20T20:50:09.183Z,5.57
2022-10-20T20:56:04.025Z,6.07
2022-10-20T21:01:56.906Z,8.07
2022-10-20T21:07:48.857Z,8.57
2022-10-20T21:13:41.486Z,7.30
2022-10-20T21:19:34.077Z,5.15
2022-10-20T21:25:25.735Z,6.45
2022-10-20T21:31:18.915Z,5.63
2022-10-20T21:37:10.525Z,8.10
2022-10-20T21:43:03.056Z,5.78
2022-10-20T21:48:56.139Z,3.92
2022-10-20T21:54:47.585Z,1.95
2022-10-20T22:00:40.138Z,6.05
2022-10-20T22:06:31.908Z,4.78
2022-10-20T22:12:23.941Z,5.50
2022-10-20T22:18:15.913Z,6.28
2022-10-20T22:24:08.516Z,7.53
2022-10-20T22:30:00.865Z,6.70
2022-10-20T22:35:53.077Z,8.00
2022-10-20T22:41:45.116Z,5.60
2022-10-20T22:47:37.486Z,6.13
2022-10-20T22:53:30.186Z,4.45
2022-10-20T22:59:22.276Z,4.68
2022-10-20T23:05:14.404Z,5.55
2022-10-20T23:11:07.005Z,5.43
2022-10-20T23:16:59.456Z,3.67
2022-10-20T23:22:52.219Z,3.30
2022-10-20T23:28:43.923Z,5.53
2022-10-20T23:34:37.375Z,6.97
2022-10-20T23:40:29.844Z,8.23
2022-10-20T23:46:22.212Z,7.13
2022-10-20T23:52:14.164Z,7.53
2022-10-20T23:58:06.525Z,6.90
